Time;durP1;ratioP1;P1;durP2;ratioP2;P2;SDS_P1;SDS_P2;PMS_P1;PMS_P2;Temp;Humidity;BMP_temperature;BMP_pressure;BME280_temperature;BME280_humidity;BME280_pressure;Samples;Min_cycle;Max_cycle;Signal;HPM_P1;HPM_P2
2022/10/13 00:00:21;;;;;;;11.85;11.25;;;;;;;13.31;100.00;101720.25;5028084;28;20489;-68
2022/10/13 00:02:46;;;;;;;11.20;10.60;;;;;;;13.39;100.00;101722.91;5022095;28;20038;-69
2022/10/13 00:05:12;;;;;;;11.07;10.50;;;;;;;13.40;100.00;101729.91;5020687;28;20028;-69
2022/10/13 00:07:37;;;;;;;11.57;10.98;;;;;;;13.26;100.00;101730.53;5022103;28;20029;-65
2022/10/13 00:10:03;;;;;;;11.85;11.25;;;;;;;13.24;100.00;101732.53;5024881;28;20021;-68
2022/10/13 00:12:28;;;;;;;11.55;10.95;;;;;;;13.23;100.00;101738.88;5026160;28;20044;-69
2022/10/13 00:14:54;;;;;;;11.32;10.73;;;;;;;13.29;100.00;101730.22;5023852;28;20025;-69
2022/10/13 00:17:19;;;;;;;11.88;11.27;;;;;;;13.23;100.00;101734.38;5024403;28;20078;-69
2022/10/13 00:19:45;;;;;;;11.68;11.07;;;;;;;13.21;100.00;101731.03;5027641;28;20030;-70
2022/10/13 00:22:10;;;;;;;11.50;10.90;;;;;;;13.21;100.00;101728.34;5024464;28;20026;-70
2022/10/13 00:24:36;;;;;;;11.68;11.07;;;;;;;13.18;100.00;101728.66;5020144;28;20053;-69
2022/10/13 00:27:02;;;;;;;11.50;10.90;;;;;;;13.29;100.00;101727.53;5029880;28;20488;-69
2022/10/13 00:29:27;;;;;;;11.15;10.55;;;;;;;13.37;100.00;101729.41;5022452;28;20029;-69
2022/10/13 00:31:53;;;;;;;11.70;11.10;;;;;;;13.26;100.00;101725.22;5029145;28;20040;-69
2022/10/13 00:34:18;;;;;;;11.30;10.70;;;;;;;13.36;100.00;101736.56;5018550;28;20156;-69
2022/10/13 00:36:43;;;;;;;11.75;11.15;;;;;;;13.35;100.00;101726.91;5023195;28;20413;-69
2022/10/13 00:39:09;;;;;;;11.52;10.93;;;;;;;12.86;100.00;101736.56;5027588;28;20109;-68
2022/10/13 00:41:35;;;;;;;12.45;11.75;;;;;;;12.73;100.00;101742.31;5024347;28;20080;-69
2022/10/13 00:44:44;;;;;;;11.55;10.95;;;;;;;12.30;100.00;101730.75;5025337;28;20369;-68
2022/10/13 00:47:10;;;;;;;11.88;11.27;;;;;;;12.16;100.00;101734.81;5060692;28;20036;-68
2022/10/13 00:49:36;;;;;;;11.95;11.35;;;;;;;12.16;100.00;101739.28;5023850;28;20030;-68
2022/10/13 00:52:01;;;;;;;11.60;11.00;;;;;;;12.31;100.00;101735.06;5030571;28;20040;-68
2022/10/13 00:54:28;;;;;;;12.32;11.63;;;;;;;11.98;100.00;101728.69;5025461;28;20404;-69
2022/10/13 00:56:54;;;;;;;11.75;11.15;;;;;;;12.11;100.00;101726.44;5021738;28;20473;-68
2022/10/13 00:59:26;;;;;;;11.95;11.35;;;;;;;12.27;100.00;101724.91;5028486;28;20029;-70
2022/10/13 01:01:52;;;;;;;11.57;10.98;;;;;;;12.05;100.00;101728.91;5025758;28;20450;-69
2022/10/13 01:04:21;;;;;;;12.38;11.68;;;;;;;11.97;100.00;101727.03;5031294;28;20033;-69
2022/10/13 01:06:48;;;;;;;11.93;11.32;;;;;;;12.12;100.00;101727.31;5026669;28;20041;-69
2022/10/13 01:09:14;;;;;;;11.70;11.10;;;;;;;12.30;100.00;101722.75;5025484;28;20132;-69
2022/10/13 01:12:12;;;;;;;11.80;11.20;;;;;;;12.18;100.00;101731.97;5022935;28;20060;-69
2022/10/13 01:14:54;;;;;;;11.65;11.05;;;;;;;12.29;100.00;101729.09;5022736;28;20141;-69
2022/10/13 01:17:46;;;;;;;12.02;11.35;;;;;;;12.54;100.00;101731.88;5023211;28;20055;-69
2022/10/13 01:20:12;;;;;;;11.65;11.05;;;;;;;12.62;100.00;101726.59;5023667;28;20109;-69
2022/10/13 01:22:46;;;;;;;11.27;10.68;;;;;;;12.65;100.00;101726.28;5026079;28;20532;-69
2022/10/13 01:25:46;;;;;;;11.27;10.68;;;;;;;12.58;100.00;101728.75;5027020;28;20025;-68
2022/10/13 01:28:26;;;;;;;10.80;10.30;;;;;;;12.64;100.00;101728.13;5025263;28;20033;-68
2022/10/13 01:30:58;;;;;;;11.02;10.43;;;;;;;12.49;100.00;101719.06;5028266;28;20033;-68
2022/10/13 01:33:49;;;;;;;11.32;10.73;;;;;;;12.09;100.00;101724.94;5018923;28;20033;-68
2022/10/13 01:36:23;;;;;;;10.82;10.32;;;;;;;12.48;100.00;101721.84;5029749;28;20024;-68
2022/10/13 01:39:05;;;;;;;11.45;10.85;;;;;;;12.38;100.00;101721.97;5018929;28;20041;-68
2022/10/13 01:41:33;;;;;;;11.48;10.88;;;;;;;12.27;100.00;101728.41;5019073;28;20044;-68
2022/10/13 01:44:22;;;;;;;12.18;11.48;;;;;;;12.55;100.00;101726.38;5030236;28;20046;-68
2022/10/13 01:46:50;;;;;;;12.90;12.15;;;;;;;12.50;100.00;101726.06;5019423;28;20094;-68
2022/10/13 01:49:19;;;;;;;11.02;10.50;;;;;;;12.32;100.00;101723.44;5027313;28;20068;-68
2022/10/13 01:51:46;;;;;;;11.80;11.20;;;;;;;12.01;100.00;101730.22;5029809;28;20663;-69
2022/10/13 01:54:11;;;;;;;11.40;10.80;;;;;;;12.39;100.00;101737.78;5024104;28;20389;-68
2022/10/13 01:56:37;;;;;;;11.43;10.82;;;;;;;12.35;100.00;101727.63;5028560;28;20270;-68
2022/10/13 01:59:10;;;;;;;11.38;10.77;;;;;;;12.31;100.00;101727.09;5026616;28;20100;-68
2022/10/13 02:01:41;;;;;;;11.75;11.15;;;;;;;12.39;100.00;101716.50;5022556;28;20036;-67
2022/10/13 02:04:28;;;;;;;11.35;10.75;;;;;;;12.33;100.00;101710.97;5018804;28;20022;-68
2022/10/13 02:07:19;;;;;;;11.50;10.90;;;;;;;12.26;100.00;101715.25;5027040;28;20047;-69
2022/10/13 02:09:57;;;;;;;11.48;10.88;;;;;;;12.08;100.00;101709.97;5012239;28;20053;-68
2022/10/13 02:12:38;;;;;;;11.30;10.70;;;;;;;12.01;100.00;101719.56;5027436;28;20121;-68
2022/10/13 02:15:08;;;;;;;11.57;10.98;;;;;;;11.75;100.00;101723.00;5023557;28;20025;-68
2022/10/13 02:17:34;;;;;;;11.25;10.65;;;;;;;11.75;100.00;101727.44;5030635;28;20071;-68
2022/10/13 02:19:59;;;;;;;11.60;11.00;;;;;;;11.73;100.00;101732.94;5025966;28;20025;-68
2022/10/13 02:22:31;;;;;;;11.70;11.10;;;;;;;11.80;100.00;101731.38;5019426;28;20369;-68
2022/10/13 02:24:57;;;;;;;11.63;11.02;;;;;;;11.95;100.00;101729.00;5027069;28;20029;-68
2022/10/13 02:27:22;;;;;;;11.95;11.35;;;;;;;12.21;100.00;101737.00;5023848;28;20492;-68
2022/10/13 02:29:55;;;;;;;11.80;11.20;;;;;;;12.32;100.00;101736.75;5023883;28;20061;-68
2022/10/13 02:32:22;;;;;;;11.85;11.25;;;;;;;11.74;100.00;101731.94;5023542;28;20034;-68
2022/10/13 02:34:48;;;;;;;11.85;11.25;;;;;;;11.97;100.00;101737.66;5026345;28;20029;-68
2022/10/13 02:37:14;;;;;;;11.95;11.30;;;;;;;11.75;100.00;101738.94;5025698;28;20415;-67
2022/10/13 02:39:39;;;;;;;11.60;11.00;;;;;;;11.52;100.00;101745.69;5028283;28;20070;-69
2022/10/13 02:42:05;;;;;;;12.35;11.65;;;;;;;11.40;100.00;101739.78;5026613;28;20034;-70
2022/10/13 02:44:31;;;;;;;12.00;11.40;;;;;;;11.09;100.00;101736.63;5025069;28;20084;-69
2022/10/13 02:46:56;;;;;;;11.57;10.98;;;;;;;11.35;100.00;101742.03;5018761;28;20034;-69
2022/10/13 02:49:22;;;;;;;11.57;10.98;;;;;;;11.26;100.00;101741.13;5025929;28;20421;-69
2022/10/13 02:51:47;;;;;;;11.65;11.05;;;;;;;11.06;100.00;101736.88;5024312;28;20041;-69
2022/10/13 02:54:13;;;;;;;12.25;11.55;;;;;;;11.08;100.00;101737.56;5023514;28;20393;-68
2022/10/13 02:56:38;;;;;;;11.98;11.38;;;;;;;11.01;100.00;101731.19;5026671;28;20064;-68
2022/10/13 02:59:04;;;;;;;11.70;11.10;;;;;;;11.32;100.00;101743.19;5025702;28;20115;-68
2022/10/13 03:01:29;;;;;;;12.02;11.40;;;;;;;11.12;100.00;101741.63;5020264;28;20469;-68
2022/10/13 03:03:55;;;;;;;12.27;11.60;;;;;;;11.34;100.00;101743.03;5022965;28;20022;-68
2022/10/13 03:06:20;;;;;;;11.90;11.30;;;;;;;11.18;100.00;101749.00;5021817;28;20033;-68
2022/10/13 03:08:46;;;;;;;11.43;10.82;;;;;;;10.96;100.00;101741.44;5018401;28;20022;-68
2022/10/13 03:11:11;;;;;;;11.68;11.07;;;;;;;10.90;100.00;101757.94;5025775;28;20484;-67
2022/10/13 03:13:37;;;;;;;12.35;11.65;;;;;;;10.89;100.00;101756.28;5022672;28;20065;-68
2022/10/13 03:16:03;;;;;;;11.75;11.15;;;;;;;10.95;100.00;101750.38;5026767;28;20029;-68
2022/10/13 03:18:29;;;;;;;12.32;11.63;;;;;;;11.37;100.00;101747.19;5023149;28;20113;-68
2022/10/13 03:20:56;;;;;;;11.27;10.68;;;;;;;11.42;100.00;101751.06;5024426;28;20029;-68
2022/10/13 03:23:21;;;;;;;11.75;11.15;;;;;;;11.27;100.00;101752.56;5015932;28;20022;-68
2022/10/13 03:25:47;;;;;;;11.40;10.80;;;;;;;11.10;100.00;101761.34;5023225;28;20022;-68
2022/10/13 03:28:12;;;;;;;12.32;11.63;;;;;;;11.22;100.00;101763.63;5023763;28;20025;-68
2022/10/13 03:30:37;;;;;;;11.48;10.88;;;;;;;11.39;100.00;101747.91;5018933;28;21000;-67
2022/10/13 03:33:04;;;;;;;11.90;11.27;;;;;;;11.15;100.00;101754.59;5024538;28;20029;-68
2022/10/13 03:35:29;;;;;;;10.93;10.32;;;;;;;10.96;100.00;101752.03;5026174;28;20034;-68
2022/10/13 03:37:55;;;;;;;11.68;11.07;;;;;;;11.13;100.00;101748.59;5023933;28;20040;-68
2022/10/13 03:40:20;;;;;;;12.27;11.57;;;;;;;11.41;100.00;101753.88;5019037;28;20065;-68
2022/10/13 03:42:46;;;;;;;11.75;11.15;;;;;;;11.49;100.00;101746.84;5022793;28;20025;-69
2022/10/13 03:45:11;;;;;;;13.30;12.50;;;;;;;11.16;100.00;101745.63;5026465;28;20025;-69
2022/10/13 03:47:37;;;;;;;12.32;11.65;;;;;;;10.94;100.00;101751.34;5017207;28;20045;-68
2022/10/13 03:50:04;;;;;;;13.48;12.68;;;;;;;11.23;100.00;101749.38;5026012;28;20017;-69
2022/10/13 03:52:29;;;;;;;11.80;11.20;;;;;;;11.07;100.00;101747.34;5043016;28;20049;-69
2022/10/13 03:54:55;;;;;;;11.70;11.10;;;;;;;11.22;100.00;101754.81;5027316;28;20116;-68
2022/10/13 03:57:20;;;;;;;11.65;11.05;;;;;;;11.18;100.00;101748.16;5024158;28;20037;-68
2022/10/13 03:59:46;;;;;;;12.07;11.38;;;;;;;10.77;100.00;101748.47;5024420;28;20026;-67
2022/10/13 04:02:11;;;;;;;12.73;12.02;;;;;;;10.63;100.00;101748.13;5022541;28;20029;-68
2022/10/13 04:04:37;;;;;;;11.75;11.15;;;;;;;10.76;100.00;101753.94;5023704;28;20017;-68
2022/10/13 04:07:03;;;;;;;12.35;11.65;;;;;;;10.98;100.00;101756.22;5024615;28;20037;-67
2022/10/13 04:09:28;;;;;;;12.40;11.70;;;;;;;11.15;100.00;101745.78;5023861;28;20031;-66
2022/10/13 04:11:54;;;;;;;12.13;11.43;;;;;;;11.00;100.00;101748.09;5057173;28;20029;-67
2022/10/13 04:14:20;;;;;;;11.98;11.30;;;;;;;10.86;100.00;101743.28;5023323;28;20590;-67
2022/10/13 04:16:46;;;;;;;12.82;12.10;;;;;;;11.01;100.00;101739.97;5025344;28;20057;-68
2022/10/13 04:19:13;;;;;;;11.73;11.13;;;;;;;10.98;100.00;101740.28;5025627;28;20029;-68
2022/10/13 04:21:39;;;;;;;13.32;12.55;;;;;;;10.88;100.00;101742.16;5020985;28;20029;-68
2022/10/13 04:24:05;;;;;;;12.57;11.88;;;;;;;10.89;100.00;101745.66;5018794;28;20036;-67
2022/10/13 04:26:34;;;;;;;12.90;12.20;;;;;;;11.12;100.00;101741.63;5025119;28;20030;-68
2022/10/13 04:29:02;;;;;;;12.02;11.38;;;;;;;10.88;100.00;101736.84;5023737;28;20033;-66
2022/10/13 04:31:29;;;;;;;11.75;11.15;;;;;;;10.87;100.00;101742.28;5026496;28;20400;-67
2022/10/13 04:33:56;;;;;;;11.73;11.13;;;;;;;10.77;100.00;101745.00;5026844;28;20033;-65
2022/10/13 04:36:22;;;;;;;12.73;12.02;;;;;;;10.61;100.00;101742.97;5024862;28;20036;-65
2022/10/13 04:38:47;;;;;;;11.75;11.15;;;;;;;10.97;100.00;101740.44;5019342;28;20030;-67
2022/10/13 04:41:14;;;;;;;12.57;11.88;;;;;;;10.98;100.00;101742.09;5023800;28;20040;-67
2022/10/13 04:43:42;;;;;;;12.43;11.73;;;;;;;11.07;100.00;101743.88;5023173;28;20033;-67
2022/10/13 04:46:15;;;;;;;11.27;10.68;;;;;;;11.16;100.00;101740.31;5021204;28;20373;-67
2022/10/13 04:48:41;;;;;;;11.98;11.27;;;;;;;10.97;100.00;101743.94;5009237;28;20053;-68
2022/10/13 04:51:15;;;;;;;12.57;11.88;;;;;;;11.07;100.00;101746.53;5023965;28;20084;-67
2022/10/13 04:53:41;;;;;;;11.65;11.05;;;;;;;11.03;100.00;101750.47;5026227;28;20034;-68
2022/10/13 04:56:09;;;;;;;11.68;11.07;;;;;;;10.90;100.00;101747.31;5020171;28;20030;-66
2022/10/13 04:58:36;;;;;;;12.30;11.60;;;;;;;11.24;100.00;101753.72;5024076;28;20033;-67
2022/10/13 05:01:03;;;;;;;12.20;11.50;;;;;;;11.20;100.00;101754.16;5019805;28;20039;-68
2022/10/13 05:03:29;;;;;;;11.52;10.93;;;;;;;11.10;100.00;101751.56;5019387;28;20033;-68
2022/10/13 05:05:55;;;;;;;11.77;11.18;;;;;;;11.28;100.00;101748.94;5016320;28;20656;-68
2022/10/13 05:08:21;;;;;;;11.70;11.10;;;;;;;11.45;100.00;101755.25;5021016;28;20037;-68
2022/10/13 05:10:57;;;;;;;11.60;11.00;;;;;;;11.38;100.00;101748.84;5019284;28;20025;-67
2022/10/13 05:13:24;;;;;;;11.75;11.15;;;;;;;11.05;100.00;101743.19;5019011;28;20071;-68
2022/10/13 05:15:49;;;;;;;11.65;11.05;;;;;;;11.10;100.00;101748.91;5019412;28;20385;-68
2022/10/13 05:18:15;;;;;;;11.63;11.02;;;;;;;11.08;100.00;101748.19;5017262;28;20164;-67
2022/10/13 05:20:41;;;;;;;12.32;11.63;;;;;;;11.11;100.00;101750.56;5027977;28;20037;-66
2022/10/13 05:23:06;;;;;;;12.18;11.48;;;;;;;11.30;100.00;101757.56;5025635;28;20440;-67
2022/10/13 05:25:34;;;;;;;12.00;11.38;;;;;;;11.39;100.00;101754.03;5017776;28;20029;-67
2022/10/13 05:28:00;;;;;;;12.80;12.10;;;;;;;10.99;100.00;101762.34;5023333;28;20029;-67
2022/10/13 05:30:25;;;;;;;12.63;11.93;;;;;;;11.27;100.00;101763.19;5023403;28;20032;-66
2022/10/13 05:32:51;;;;;;;12.45;11.75;;;;;;;11.25;100.00;101765.19;5024723;28;20036;-68
2022/10/13 05:35:16;;;;;;;12.52;11.82;;;;;;;11.06;100.00;101766.94;5026859;28;20740;-65
2022/10/13 05:37:41;;;;;;;14.48;13.57;;;;;;;10.82;100.00;101769.28;5029023;28;20030;-65
2022/10/13 05:40:07;;;;;;;13.30;12.50;;;;;;;11.31;100.00;101778.69;5016332;28;20026;-72
2022/10/13 05:42:34;;;;;;;12.73;12.02;;;;;;;11.35;100.00;101776.56;5028428;28;20066;-71
2022/10/13 05:45:00;;;;;;;12.90;12.18;;;;;;;11.06;100.00;101782.03;5027305;28;20029;-72
2022/10/13 05:47:27;;;;;;;11.30;10.70;;;;;;;10.84;100.00;101785.06;5025368;28;20435;-70
2022/10/13 05:49:54;;;;;;;12.57;11.88;;;;;;;10.76;100.00;101789.28;5033022;28;20033;-70
2022/10/13 05:52:21;;;;;;;11.30;10.70;;;;;;;11.06;100.00;101787.34;5028673;28;20511;-69
2022/10/13 05:54:53;;;;;;;11.20;10.60;;;;;;;10.65;100.00;101789.47;5029765;28;20040;-69
2022/10/13 05:57:26;;;;;;;12.25;11.55;;;;;;;10.99;100.00;101788.91;5029628;28;20039;-69
2022/10/13 05:59:57;;;;;;;11.85;11.25;;;;;;;11.06;100.00;101796.16;5032644;28;20076;-69
2022/10/13 06:02:27;;;;;;;12.65;11.95;;;;;;;11.11;100.00;101793.06;5025878;28;20028;-69
2022/10/13 06:04:56;;;;;;;12.32;11.63;;;;;;;11.18;100.00;101790.66;5025171;28;20029;-69
2022/10/13 06:07:22;;;;;;;12.00;11.32;;;;;;;10.92;100.00;101791.31;5024477;28;20034;-69
2022/10/13 06:09:48;;;;;;;12.10;11.40;;;;;;;10.91;100.00;101794.13;5025615;28;20029;-69
2022/10/13 06:12:14;;;;;;;12.07;11.38;;;;;;;10.97;100.00;101799.69;5027032;28;20667;-68
2022/10/13 06:14:39;;;;;;;12.20;11.50;;;;;;;11.39;100.00;101791.25;5018845;28;20071;-71
2022/10/13 06:17:07;;;;;;;11.48;10.88;;;;;;;10.93;100.00;101798.28;5026348;28;20029;-70
2022/10/13 06:19:32;;;;;;;11.68;11.07;;;;;;;10.86;100.00;101796.38;5027092;28;20017;-69
2022/10/13 06:21:58;;;;;;;11.88;11.27;;;;;;;10.82;100.00;101803.81;5028648;28;20037;-70
2022/10/13 06:24:26;;;;;;;11.18;10.57;;;;;;;11.00;100.00;101804.69;5026663;28;20033;-69
2022/10/13 06:26:52;;;;;;;11.38;10.77;;;;;;;11.08;100.00;101801.31;5028064;28;20037;-69
2022/10/13 06:29:17;;;;;;;10.93;10.40;;;;;;;11.40;100.00;101803.53;5026726;28;20033;-69
2022/10/13 06:31:43;;;;;;;11.40;10.80;;;;;;;11.37;100.00;101795.00;5026222;28;20036;-71
2022/10/13 06:34:08;;;;;;;11.55;10.95;;;;;;;11.45;100.00;101798.59;5026263;28;20033;-74
2022/10/13 06:36:33;;;;;;;11.65;11.05;;;;;;;11.33;100.00;101792.66;5029584;28;20393;-71
2022/10/13 06:38:59;;;;;;;11.25;10.65;;;;;;;11.27;100.00;101793.25;5028664;28;20029;-71
2022/10/13 06:41:25;;;;;;;11.95;11.32;;;;;;;11.78;100.00;101802.44;5029046;28;20521;-72
2022/10/13 06:43:50;;;;;;;11.43;10.82;;;;;;;11.54;100.00;101796.88;5030006;28;20026;-72
2022/10/13 06:46:16;;;;;;;10.73;10.23;;;;;;;12.07;100.00;101798.75;5027378;28;20052;-69
2022/10/13 06:48:42;;;;;;;11.85;11.25;;;;;;;11.89;100.00;101799.56;5028923;28;20457;-70
2022/10/13 06:51:09;;;;;;;11.60;11.00;;;;;;;11.41;100.00;101796.41;5026620;28;20104;-72
2022/10/13 06:53:35;;;;;;;11.25;10.65;;;;;;;11.19;100.00;101801.13;5027886;28;20087;-70
2022/10/13 06:56:06;;;;;;;10.80;10.30;;;;;;;11.40;100.00;101795.56;5024508;28;20140;-69
2022/10/13 06:58:36;;;;;;;11.20;10.60;;;;;;;11.26;100.00;101790.75;5014530;28;20052;-70
2022/10/13 07:01:03;;;;;;;10.70;10.20;;;;;;;11.26;100.00;101793.41;5022251;28;20029;-70
2022/10/13 07:03:28;;;;;;;11.65;11.05;;;;;;;11.16;100.00;101803.22;5024551;28;20076;-71
2022/10/13 07:05:59;;;;;;;11.50;10.90;;;;;;;11.27;100.00;101806.53;5019480;28;20460;-70
2022/10/13 07:08:25;;;;;;;11.60;11.00;;;;;;;11.61;100.00;101804.09;5024126;28;20033;-71
2022/10/13 07:10:51;;;;;;;11.90;11.30;;;;;;;11.21;100.00;101799.16;5024801;28;20079;-70
2022/10/13 07:13:16;;;;;;;11.73;11.13;;;;;;;11.60;100.00;101801.56;5025214;28;20087;-70
2022/10/13 07:15:42;;;;;;;11.75;11.13;;;;;;;11.37;100.00;101805.63;5025842;28;20044;-72
2022/10/13 07:18:07;;;;;;;10.75;10.25;;;;;;;11.43;100.00;101800.56;5024920;28;20081;-72
2022/10/13 07:20:33;;;;;;;11.63;11.02;;;;;;;11.97;100.00;101804.16;5024289;28;20064;-71
2022/10/13 07:23:00;;;;;;;10.88;10.30;;;;;;;11.96;100.00;101796.31;5029505;28;20054;-71
2022/10/13 07:25:26;;;;;;;11.43;10.82;;;;;;;11.47;100.00;101803.78;5023665;28;20026;-69
2022/10/13 07:27:53;;;;;;;11.20;10.60;;;;;;;11.77;100.00;101802.59;5020501;28;20571;-70
2022/10/13 07:30:18;;;;;;;11.13;10.52;;;;;;;11.78;100.00;101804.25;5026800;28;20160;-71
2022/10/13 07:32:44;;;;;;;12.00;11.32;;;;;;;11.87;100.00;101809.53;5009085;28;20121;-71
2022/10/13 07:35:11;;;;;;;10.70;10.20;;;;;;;11.94;100.00;101808.94;5023878;28;20109;-69
2022/10/13 07:37:38;;;;;;;12.85;12.15;;;;;;;11.99;100.00;101809.31;5026731;28;20502;-69
2022/10/13 07:40:04;;;;;;;11.20;10.60;;;;;;;12.53;100.00;101807.41;5022317;28;20116;-69
2022/10/13 07:42:30;;;;;;;11.38;10.77;;;;;;;12.22;100.00;101809.69;5021435;28;20029;-69
2022/10/13 07:44:56;;;;;;;11.32;10.73;;;;;;;11.77;100.00;101805.25;5024250;28;20439;-68
2022/10/13 07:47:21;;;;;;;11.20;10.60;;;;;;;12.09;100.00;101818.88;5025042;28;20124;-68
2022/10/13 07:49:47;;;;;;;11.02;10.50;;;;;;;12.57;100.00;101814.09;5022384;28;20082;-69
2022/10/13 07:52:12;;;;;;;12.52;11.82;;;;;;;12.93;100.00;101812.16;5023739;28;20057;-69
2022/10/13 07:54:37;;;;;;;10.75;10.25;;;;;;;12.85;100.00;101804.97;5019375;28;20400;-68
2022/10/13 07:57:03;;;;;;;10.65;10.15;;;;;;;12.45;100.00;101803.69;5022887;28;20037;-68
2022/10/13 07:59:31;;;;;;;11.98;11.38;;;;;;;12.11;100.00;101811.56;5023791;28;20144;-68
2022/10/13 08:01:56;;;;;;;11.55;10.95;;;;;;;12.15;100.00;101806.78;5022666;28;20037;-68
2022/10/13 08:04:22;;;;;;;12.00;11.40;;;;;;;12.58;100.00;101808.63;5017810;28;20080;-68
2022/10/13 08:06:47;;;;;;;10.88;10.38;;;;;;;12.80;100.00;101799.25;5030202;28;20043;-68
2022/10/13 08:09:13;;;;;;;11.10;10.57;;;;;;;12.92;100.00;101794.47;5024398;28;20037;-68
2022/10/13 08:11:38;;;;;;;11.00;10.50;;;;;;;12.22;100.00;101799.88;5022821;28;20037;-68
2022/10/13 08:14:04;;;;;;;11.23;10.63;;;;;;;11.74;100.00;101801.06;5024685;28;20029;-69
2022/10/13 08:16:31;;;;;;;11.40;10.80;;;;;;;12.21;100.00;101805.34;5022798;28;20025;-69
2022/10/13 08:18:58;;;;;;;11.32;10.73;;;;;;;11.93;100.00;101802.78;5027168;28;20104;-68
2022/10/13 08:21:26;;;;;;;11.35;10.75;;;;;;;11.81;100.00;101807.47;5024144;28;20032;-68
2022/10/13 08:23:51;;;;;;;11.88;11.27;;;;;;;12.04;100.00;101807.84;5019316;28;20107;-68
2022/10/13 08:26:21;;;;;;;11.80;11.20;;;;;;;12.28;100.00;101806.41;5025098;28;20517;-69
2022/10/13 08:28:47;;;;;;;11.88;11.27;;;;;;;12.18;100.00;101806.47;5023784;28;20040;-69
2022/10/13 08:31:12;;;;;;;11.10;10.50;;;;;;;12.59;100.00;101812.09;5019652;28;20022;-68
2022/10/13 08:33:39;;;;;;;11.63;11.02;;;;;;;12.51;100.00;101812.06;5018245;28;20117;-70
2022/10/13 08:36:06;;;;;;;10.90;10.40;;;;;;;12.76;100.00;101811.22;5017826;28;20041;-69
2022/10/13 08:38:31;;;;;;;11.90;11.30;;;;;;;12.02;100.00;101803.69;5027123;28;20033;-69
2022/10/13 08:40:56;;;;;;;11.68;11.07;;;;;;;12.13;100.00;101803.47;5025504;28;20025;-68
2022/10/13 08:43:25;;;;;;;11.25;10.65;;;;;;;12.73;100.00;101808.88;5022530;28;20033;-68
2022/10/13 08:45:55;;;;;;;10.77;10.27;;;;;;;12.29;100.00;101792.09;5025028;28;20034;-68
2022/10/13 08:48:24;;;;;;;11.70;11.10;;;;;;;12.16;100.00;101806.63;5022867;28;20038;-68
2022/10/13 08:50:53;;;;;;;11.30;10.70;;;;;;;12.25;100.00;101810.19;5017243;28;20041;-68
2022/10/13 08:53:39;;;;;;;10.82;10.32;;;;;;;12.15;100.00;101798.81;5020558;28;20037;-68
2022/10/13 08:56:24;;;;;;;10.57;10.07;;;;;;;12.28;100.00;101796.59;5015807;28;20030;-68
2022/10/13 08:58:53;;;;;;;11.45;10.85;;;;;;;12.54;100.00;101801.91;5047100;28;20480;-68
2022/10/13 09:01:26;;;;;;;11.02;10.52;;;;;;;12.68;100.00;101795.19;5024748;28;20098;-68
2022/10/13 09:03:56;;;;;;;10.93;10.43;;;;;;;11.81;100.00;101790.69;5023092;28;20022;-68
2022/10/13 09:06:32;;;;;;;12.05;11.43;;;;;;;12.62;100.00;101801.97;5017783;28;20513;-68
2022/10/13 09:09:10;;;;;;;10.85;10.32;;;;;;;12.07;100.00;101794.25;5023486;28;20041;-67
2022/10/13 09:11:41;;;;;;;11.60;11.00;;;;;;;12.08;100.00;101809.22;5025397;28;20030;-71
2022/10/13 09:14:10;;;;;;;11.68;11.07;;;;;;;12.40;100.00;101805.97;5020300;28;20087;-68
2022/10/13 09:16:43;;;;;;;11.68;11.07;;;;;;;12.79;100.00;101800.25;5021430;28;20034;-69
2022/10/13 09:19:14;;;;;;;11.70;11.10;;;;;;;12.92;100.00;101800.63;5027217;28;20026;-68
2022/10/13 09:21:40;;;;;;;12.18;11.48;;;;;;;12.24;100.00;101799.72;5026023;28;20034;-68
2022/10/13 09:24:11;;;;;;;11.75;11.15;;;;;;;12.12;100.00;101801.78;5023819;28;20112;-69
2022/10/13 09:26:38;;;;;;;12.38;11.68;;;;;;;12.09;100.00;101808.22;5020583;28;20026;-69
2022/10/13 09:29:20;;;;;;;11.57;10.98;;;;;;;12.25;100.00;101812.84;5024552;28;20034;-69
2022/10/13 09:31:46;;;;;;;11.75;11.15;;;;;;;11.93;100.00;101807.25;5030821;28;20104;-69
2022/10/13 09:34:23;;;;;;;11.85;11.25;;;;;;;11.84;100.00;101804.53;5020188;28;20106;-68
2022/10/13 09:37:02;;;;;;;11.50;10.90;;;;;;;12.53;100.00;101804.75;5022659;28;20108;-67
2022/10/13 09:39:28;;;;;;;12.18;11.50;;;;;;;11.75;100.00;101802.75;5021452;28;20029;-66
2022/10/13 09:42:33;;;;;;;11.30;10.70;;;;;;;12.49;100.00;101793.59;5023467;28;20923;-65
2022/10/13 09:45:10;;;;;;;11.43;10.83;;;;;;;12.06;100.00;101797.91;5022396;28;20048;-66
2022/10/13 09:47:37;;;;;;;11.63;11.02;;;;;;;12.16;100.00;101792.50;5024615;28;20037;-67
2022/10/13 09:50:17;;;;;;;12.35;11.65;;;;;;;11.91;100.00;101794.13;5026447;28;20045;-65
2022/10/13 09:52:47;;;;;;;11.77;11.18;;;;;;;12.28;100.00;101799.25;5029000;28;20037;-66
2022/10/13 09:55:32;;;;;;;11.77;11.18;;;;;;;12.69;100.00;101797.69;5023742;28;20117;-66
2022/10/13 09:58:05;;;;;;;;;;;;;;;12.33;100.00;101796.94;5018768;28;20033;-66
2022/10/13 10:00:32;;;;;;;11.52;10.93;;;;;;;12.28;100.00;101798.41;5025374;28;19924;-67
2022/10/13 10:03:12;;;;;;;11.43;10.82;;;;;;;12.18;100.00;101794.00;5027336;28;20060;-67
2022/10/13 10:05:45;;;;;;;11.45;10.85;;;;;;;12.17;100.00;101794.16;5031793;28;20035;-66
2022/10/13 10:08:22;;;;;;;12.57;11.88;;;;;;;12.44;100.00;101788.72;5021277;28;20032;-69
2022/10/13 10:10:48;;;;;;;12.23;11.52;;;;;;;11.87;100.00;101780.28;5020573;28;20037;-69
2022/10/13 10:13:14;;;;;;;12.27;11.57;;;;;;;12.31;100.00;101787.47;5027693;28;20035;-68
2022/10/13 10:15:51;;;;;;;11.40;10.80;;;;;;;12.96;100.00;101779.88;5028724;28;20484;-70
2022/10/13 10:18:27;;;;;;;11.63;11.02;;;;;;;12.28;100.00;101780.63;5026409;28;20035;-69
2022/10/13 10:21:04;;;;;;;10.85;10.35;;;;;;;12.21;100.00;101779.56;5023533;28;20044;-68
2022/10/13 10:23:41;;;;;;;10.75;10.25;;;;;;;12.34;100.00;101774.69;5023834;28;20112;-69
2022/10/13 10:26:15;;;;;;;11.48;10.88;;;;;;;12.54;100.00;101771.81;5024504;28;20037;-69
2022/10/13 10:28:41;;;;;;;;;;;;;;;12.44;100.00;101770.09;5018281;28;20029;-70
2022/10/13 10:31:38;;;;;;;11.40;10.80;;;;;;;12.36;100.00;101772.69;5023146;28;19948;-70
2022/10/13 10:34:22;;;;;;;11.43;10.82;;;;;;;12.22;100.00;101770.59;5024760;28;20018;-69
2022/10/13 10:37:25;;;;;;;10.95;10.45;;;;;;;12.15;100.00;101769.53;5022064;28;20045;-69
2022/10/13 10:40:00;;;;;;;10.93;10.43;;;;;;;13.17;100.00;101760.81;5060153;28;20056;-69
2022/10/13 10:43:03;;;;;;;10.80;10.30;;;;;;;12.20;100.00;101767.28;5024906;28;20025;-71
2022/10/13 10:45:38;;;;;;;11.20;10.60;;;;;;;12.18;100.00;101751.44;5047537;28;20117;-71
2022/10/13 10:48:21;;;;;;;10.68;10.18;;;;;;;13.22;100.00;101750.50;5026066;28;20502;-70
2022/10/13 10:50:49;;;;;;;10.73;10.23;;;;;;;12.85;100.00;101746.38;5025856;28;20026;-69
2022/10/13 10:53:35;;;;;;;10.98;10.48;;;;;;;13.41;100.00;101739.56;5028869;28;20029;-71
2022/10/13 10:56:36;;;;;;;11.93;11.32;;;;;;;12.64;100.00;101746.75;5024684;28;20076;-69
2022/10/13 10:59:20;;;;;;;11.73;11.13;;;;;;;12.93;100.00;101741.06;5030009;28;20029;-69
2022/10/13 11:01:59;;;;;;;11.40;10.80;;;;;;;12.27;100.00;101739.06;5024183;28;20128;-69
2022/10/13 11:04:47;;;;;;;11.40;10.80;;;;;;;12.68;100.00;101737.44;5023329;28;20030;-69
2022/10/13 11:07:21;;;;;;;11.70;11.10;;;;;;;12.77;100.00;101738.31;5027219;28;20021;-69
2022/10/13 11:09:47;;;;;;;;;;;;;;;12.68;100.00;101742.78;5026543;28;20053;-70
2022/10/13 11:12:18;;;;;;;12.57;11.88;;;;;;;13.05;100.00;101730.94;5043447;28;19979;-69